createdAt,value
2019-04-27T00:00:45.628Z,6.03
2019-04-27T00:03:36.514Z,3.47
2019-04-27T00:06:13.536Z,5.83
2019-04-27T00:09:03.563Z,4.83
2019-04-27T00:11:42.175Z,8.27
2019-04-27T00:14:15.012Z,4.30
2019-04-27T00:17:03.832Z,4.40
2019-04-27T00:19:51.520Z,4.67
2019-04-27T00:22:23.792Z,4.40
2019-04-27T00:24:54.277Z,8.87
2019-04-27T00:27:24.935Z,6.60
2019-04-27T00:29:55.597Z,6.83
2019-04-27T00:32:26.451Z,5.67
2019-04-27T00:34:57.055Z,5.73
2019-04-27T00:37:46.715Z,6.80
2019-04-27T00:40:18.971Z,7.20
2019-04-27T00:42:49.607Z,6.87
2019-04-27T00:45:20.365Z,6.27
2019-04-27T00:47:58.719Z,6.93
2019-04-27T00:50:23.550Z,8.87
2019-04-27T00:52:59.262Z,6.50
2019-04-27T00:55:43.828Z,9.13
2019-04-27T00:58:33.043Z,8.80
2019-04-27T01:01:08.139Z,5.93
2019-04-27T01:03:47.233Z,6.90
2019-04-27T01:06:18.089Z,6.73
2019-04-27T01:08:48.865Z,9.13
2019-04-27T01:11:19.559Z,9.47
2019-04-27T01:13:50.174Z,5.77
2019-04-27T01:16:22.439Z,7.37
2019-04-27T01:18:53.018Z,8.20
2019-04-27T01:21:23.612Z,7.23
2019-04-27T01:23:54.248Z,7.73
2019-04-27T01:26:33.602Z,8.87
2019-04-27T01:29:10.306Z,5.50
2019-04-27T01:31:44.323Z,5.70
2019-04-27T01:34:14.893Z,5.80
2019-04-27T01:36:45.556Z,8.17
2019-04-27T01:39:18.853Z,9.30
2019-04-27T01:41:49.730Z,6.33
2019-04-27T01:44:20.399Z,7.07
2019-04-27T01:46:51.053Z,7.70
2019-04-27T01:49:30.874Z,9.00
2019-04-27T01:52:07.381Z,8.03
2019-04-27T01:54:39.254Z,7.67
2019-04-27T01:57:10.566Z,7.13
2019-04-27T01:59:41.198Z,9.00
2019-04-27T02:02:25.222Z,7.37
2019-04-27T02:05:13.709Z,5.80
2019-04-27T02:07:45.453Z,6.73
2019-04-27T02:10:21.468Z,4.70
2019-04-27T02:12:52.051Z,5.87
2019-04-27T02:15:36.883Z,8.47
2019-04-27T02:18:09.333Z,6.57
2019-04-27T02:20:49.036Z,7.03
2019-04-27T02:23:19.444Z,7.57
2019-04-27T02:25:50.138Z,7.80
2019-04-27T02:28:30.386Z,6.43
2019-04-27T02:31:11.968Z,5.07
2019-04-27T02:33:44.212Z,7.27
2019-04-27T02:36:20.189Z,6.60
2019-04-27T02:38:53.122Z,4.87
2019-04-27T02:41:30.285Z,6.43
2019-04-27T02:44:02.501Z,5.53
2019-04-27T02:46:34.154Z,7.40
2019-04-27T02:49:07.203Z,5.53
2019-04-27T02:51:55.564Z,4.57
2019-04-27T02:54:26.159Z,7.53
2019-04-27T02:56:59.217Z,6.77
2019-04-27T02:59:30.352Z,6.13
2019-04-27T03:02:02.738Z,7.67
2019-04-27T03:04:33.469Z,5.63
2019-04-27T03:07:04.198Z,5.93
2019-04-27T03:09:40.606Z,7.07
2019-04-27T03:12:11.453Z,5.00
2019-04-27T03:14:50.603Z,4.40
2019-04-27T03:17:39.716Z,7.73
2019-04-27T03:20:15.155Z,4.33
2019-04-27T03:22:49.443Z,5.83
2019-04-27T03:25:21.665Z,5.37
2019-04-27T03:27:54.169Z,4.00
2019-04-27T03:30:25.090Z,5.17
2019-04-27T03:33:02.865Z,6.57
2019-04-27T03:35:42.976Z,4.40
2019-04-27T03:38:13.078Z,7.00
2019-04-27T03:40:43.664Z,7.67
2019-04-27T03:43:15.871Z,5.77
2019-04-27T03:45:46.635Z,5.07
2019-04-27T03:48:17.318Z,6.20
2019-04-27T03:50:52.309Z,9.03
2019-04-27T03:53:39.736Z,5.10
2019-04-27T03:56:21.928Z,4.70
2019-04-27T03:58:59.805Z,5.00
2019-04-27T04:01:31.555Z,7.07
2019-04-27T04:04:03.263Z,6.07
2019-04-27T04:06:49.494Z,5.93
2019-04-27T04:09:22.857Z,6.07
2019-04-27T04:12:02.257Z,9.67
2019-04-27T04:14:36.827Z,4.97
2019-04-27T04:17:09.852Z,4.70
2019-04-27T04:19:53.927Z,5.20
2019-04-27T04:22:17.041Z,7.00
2019-04-27T04:24:47.754Z,3.50
2019-04-27T04:27:26.138Z,3.63
2019-04-27T04:29:59.397Z,4.57
2019-04-27T04:32:30.373Z,4.07
2019-04-27T04:35:21.220Z,3.80
2019-04-27T04:37:53.046Z,6.50
2019-04-27T04:40:25.352Z,3.90
2019-04-27T04:43:03.275Z,6.80
2019-04-27T04:45:40.858Z,5.03
2019-04-27T04:48:13.124Z,6.80
2019-04-27T04:50:50.014Z,5.40
2019-04-27T04:53:20.833Z,5.90
2019-04-27T04:55:51.613Z,5.40
2019-04-27T04:58:22.291Z,3.73
2019-04-27T05:00:52.780Z,5.73
2019-04-27T05:03:23.442Z,7.10
2019-04-27T05:05:54.103Z,6.03
2019-04-27T05:08:24.644Z,6.73
2019-04-27T05:10:59.513Z,4.80
2019-04-27T05:13:35.014Z,4.23
2019-04-27T05:16:05.594Z,4.57
2019-04-27T05:18:36.253Z,4.97
2019-04-27T05:21:14.532Z,3.37
2019-04-27T05:23:49.296Z,3.97
2019-04-27T05:26:20.817Z,4.57
2019-04-27T05:28:51.655Z,4.57
2019-04-27T05:31:22.214Z,5.20
2019-04-27T05:33:52.884Z,4.37
2019-04-27T05:36:29.659Z,5.43
2019-04-27T05:39:18.169Z,6.17
2019-04-27T05:41:49.801Z,6.73
2019-04-27T05:44:25.065Z,7.30
2019-04-27T05:46:58.767Z,5.80
2019-04-27T05:49:44.108Z,5.67
2019-04-27T05:52:29.431Z,6.07
2019-04-27T05:55:01.154Z,8.43
2019-04-27T05:57:41.459Z,4.77
2019-04-27T06:00:15.503Z,5.43
2019-04-27T06:02:46.185Z,7.73
2019-04-27T06:05:18.873Z,4.87
2019-04-27T06:07:51.229Z,6.10
2019-04-27T06:10:21.900Z,5.20
2019-04-27T06:12:54.794Z,6.03
2019-04-27T06:15:25.413Z,4.93
2019-04-27T06:17:57.002Z,6.33
2019-04-27T06:20:28.579Z,7.03
2019-04-27T06:23:01.352Z,6.03
2019-04-27T06:25:32.077Z,5.33
2019-04-27T06:28:02.782Z,5.23
2019-04-27T06:30:33.444Z,11.60
2019-04-27T06:33:04.161Z,5.37
2019-04-27T06:35:34.724Z,7.27
2019-04-27T06:38:05.426Z,8.17
2019-04-27T06:40:36.116Z,5.20
2019-04-27T06:43:08.512Z,6.77
2019-04-27T06:45:41.231Z,6.13
2019-04-27T06:48:11.872Z,6.53
2019-04-27T06:50:42.653Z,9.37
2019-04-27T06:53:13.375Z,6.57
2019-04-27T06:55:58.594Z,6.87
2019-04-27T06:58:29.374Z,7.30
2019-04-27T07:01:00.056Z,7.47
2019-04-27T07:03:36.257Z,8.03
2019-04-27T07:06:08.720Z,8.60
2019-04-27T07:08:40.484Z,8.63
2019-04-27T07:11:19.811Z,7.20
2019-04-27T07:13:51.721Z,7.17
2019-04-27T07:16:22.428Z,9.77
2019-04-27T07:18:59.321Z,8.63
2019-04-27T07:21:31.171Z,8.17
2019-04-27T07:24:01.781Z,6.90
2019-04-27T07:26:32.524Z,8.43
2019-04-27T07:29:05.166Z,9.67
2019-04-27T07:31:49.796Z,11.50
2019-04-27T07:34:21.405Z,9.13
2019-04-27T07:36:52.165Z,7.57
2019-04-27T07:39:22.849Z,9.63
2019-04-27T07:41:59.497Z,9.23
2019-04-27T07:44:35.510Z,7.63
2019-04-27T07:47:19.733Z,8.93
2019-04-27T07:49:56.605Z,7.73
2019-04-27T07:52:41.414Z,12.40
2019-04-27T07:55:14.004Z,11.63
2019-04-27T07:57:46.762Z,11.43
2019-04-27T08:00:19.048Z,11.27
2019-04-27T08:02:49.670Z,10.40
2019-04-27T08:05:20.391Z,12.00
2019-04-27T08:07:51.238Z,11.80
2019-04-27T08:10:24.039Z,9.77
2019-04-27T08:12:54.744Z,9.83
2019-04-27T08:15:25.373Z,11.77
2019-04-27T08:17:56.091Z,9.93
2019-04-27T08:20:29.409Z,10.87
2019-04-27T08:23:01.364Z,8.67
2019-04-27T08:25:33.143Z,10.17
2019-04-27T08:28:05.472Z,9.70
2019-04-27T08:30:46.678Z,9.73
2019-04-27T08:33:18.963Z,11.80
2019-04-27T08:35:49.729Z,10.93
2019-04-27T08:38:21.371Z,11.27
2019-04-27T08:40:52.067Z,11.50
2019-04-27T08:43:23.659Z,13.53
2019-04-27T08:45:55.300Z,15.27
2019-04-27T08:48:34.713Z,10.57
2019-04-27T08:51:02.358Z,11.63
2019-04-27T08:53:40.315Z,8.30
2019-04-27T08:56:13.215Z,12.00
2019-04-27T08:58:43.900Z,8.57
2019-04-27T09:01:18.336Z,10.87
2019-04-27T09:03:49.560Z,13.13
2019-04-27T09:06:25.754Z,10.43
2019-04-27T09:08:59.385Z,11.17
2019-04-27T09:11:39.122Z,10.93
2019-04-27T09:14:21.566Z,10.10
2019-04-27T09:17:02.945Z,11.63
2019-04-27T09:19:52.334Z,12.63
2019-04-27T09:22:25.181Z,10.93
2019-04-27T09:25:05.538Z,11.47
2019-04-27T09:27:39.464Z,13.37
2019-04-27T09:30:13.540Z,11.07
2019-04-27T09:32:49.440Z,13.53
2019-04-27T09:35:22.380Z,11.60
2019-04-27T09:37:56.293Z,14.37
2019-04-27T09:40:33.498Z,9.77
2019-04-27T09:43:04.222Z,5.13
2019-04-27T09:45:37.810Z,33.33
2019-04-27T09:48:08.999Z,4.67
2019-04-27T09:50:39.688Z,9.67
2019-04-27T09:53:12.755Z,5.70
2019-04-27T09:55:44.480Z,5.53
2019-04-27T09:58:16.026Z,9.70
2019-04-27T10:00:49.579Z,11.10
2019-04-27T10:03:24.193Z,7.10
2019-04-27T10:05:57.184Z,7.30
2019-04-27T10:08:28.921Z,6.07
2019-04-27T10:10:59.602Z,8.13
2019-04-27T10:13:31.238Z,7.43
2019-04-27T10:16:01.945Z,8.33
2019-04-27T10:18:32.596Z,7.60
2019-04-27T10:21:03.337Z,10.57
2019-04-27T10:23:34.012Z,5.20
2019-04-27T10:26:05.838Z,9.03
2019-04-27T10:28:37.276Z,8.33
2019-04-27T10:31:08.041Z,6.07
2019-04-27T10:33:41.971Z,6.20
2019-04-27T10:36:13.662Z,8.90
2019-04-27T10:38:55.603Z,14.27
2019-04-27T10:41:26.360Z,6.53
2019-04-27T10:44:01.110Z,7.10
2019-04-27T10:46:31.859Z,6.40
2019-04-27T10:49:05.971Z,5.70
2019-04-27T10:51:41.840Z,6.57
2019-04-27T10:54:12.548Z,7.57
2019-04-27T10:56:43.215Z,9.03
2019-04-27T10:59:13.800Z,7.77
2019-04-27T11:01:45.934Z,9.13
2019-04-27T11:04:18.563Z,7.93
2019-04-27T11:07:07.212Z,7.83
2019-04-27T11:09:39.053Z,10.30
2019-04-27T11:12:09.775Z,6.83
2019-04-27T11:14:46.451Z,7.77
2019-04-27T11:17:23.689Z,9.60
2019-04-27T11:19:54.289Z,13.37
2019-04-27T11:22:26.039Z,9.37
2019-04-27T11:24:56.786Z,9.67
2019-04-27T11:27:27.555Z,12.40
2019-04-27T11:29:58.147Z,11.77
2019-04-27T11:32:36.269Z,8.73
2019-04-27T11:35:18.014Z,9.77
2019-04-27T11:37:50.357Z,14.07
2019-04-27T11:40:22.669Z,10.67
2019-04-27T11:42:58.663Z,7.67
2019-04-27T11:45:29.316Z,6.23
2019-04-27T11:47:59.946Z,5.10
2019-04-27T11:50:30.496Z,4.17
2019-04-27T11:53:01.197Z,7.63
2019-04-27T11:55:32.925Z,5.10
2019-04-27T11:58:30.348Z,5.53
2019-04-27T12:01:01.972Z,4.23
2019-04-27T12:03:32.620Z,5.80
2019-04-27T12:06:03.277Z,5.30
2019-04-27T12:08:45.677Z,7.37
2019-04-27T12:11:17.192Z,4.10
2019-04-27T12:13:48.033Z,5.27
2019-04-27T12:16:21.112Z,5.33
2019-04-27T12:18:52.861Z,31.30
2019-04-27T12:21:24.540Z,4.73
2019-04-27T12:23:55.247Z,8.27
2019-04-27T12:26:30.322Z,7.17
2019-04-27T12:29:06.243Z,10.80
2019-04-27T12:31:44.874Z,5.03
2019-04-27T12:34:16.919Z,5.37
2019-04-27T12:36:48.616Z,6.97
2019-04-27T12:39:19.208Z,5.50
2019-04-27T12:41:50.012Z,6.00
2019-04-27T12:44:21.625Z,4.00
2019-04-27T12:46:52.178Z,5.97
2019-04-27T12:49:22.687Z,5.67
2019-04-27T12:51:53.358Z,6.57
2019-04-27T12:54:26.608Z,7.03
2019-04-27T12:57:06.058Z,8.27
2019-04-27T12:59:56.622Z,6.47
2019-04-27T13:02:29.115Z,9.43
2019-04-27T13:05:02.010Z,6.33
2019-04-27T13:07:32.633Z,9.30
2019-04-27T13:10:03.465Z,6.13
2019-04-27T13:12:35.763Z,10.27
2019-04-27T13:15:08.021Z,10.87
2019-04-27T13:17:38.652Z,9.37
2019-04-27T13:20:09.600Z,9.43
2019-04-27T13:22:40.173Z,8.57
2019-04-27T13:25:10.887Z,7.50
2019-04-27T13:27:41.573Z,12.03
2019-04-27T13:30:12.760Z,8.77
2019-04-27T13:32:43.412Z,8.33
2019-04-27T13:35:15.829Z,8.57
2019-04-27T13:37:52.970Z,11.87
2019-04-27T13:40:23.700Z,9.70
2019-04-27T13:42:57.543Z,11.63
2019-04-27T13:45:53.072Z,11.07
2019-04-27T13:48:26.071Z,7.80
2019-04-27T13:51:02.346Z,8.80
2019-04-27T13:53:32.944Z,8.17
2019-04-27T13:56:09.692Z,8.53
2019-04-27T13:59:03.353Z,9.90
2019-04-27T14:01:34.701Z,7.70
2019-04-27T14:04:07.627Z,7.40
2019-04-27T14:06:38.352Z,10.33
2019-04-27T14:09:09.333Z,8.50
2019-04-27T14:11:41.959Z,9.70
2019-04-27T14:14:12.698Z,5.83
2019-04-27T14:16:46.860Z,10.27
2019-04-27T14:19:18.929Z,10.10
2019-04-27T14:21:56.219Z,7.53
2019-04-27T14:24:31.890Z,5.97
2019-04-27T14:27:11.082Z,6.60
2019-04-27T14:29:41.770Z,5.93
2019-04-27T14:32:12.758Z,6.47
2019-04-27T14:34:54.530Z,5.37
2019-04-27T14:37:29.717Z,7.30
2019-04-27T14:40:01.536Z,6.97
2019-04-27T14:42:39.888Z,6.73
2019-04-27T14:45:15.174Z,4.90
2019-04-27T14:47:46.129Z,9.23
2019-04-27T14:50:19.946Z,6.33
2019-04-27T14:52:55.965Z,6.47
2019-04-27T14:55:30.103Z,5.20
2019-04-27T14:58:02.504Z,4.57
2019-04-27T15:00:33.402Z,6.37
2019-04-27T15:03:06.489Z,8.03
2019-04-27T15:05:37.490Z,5.10
2019-04-27T15:08:13.890Z,9.83
2019-04-27T15:10:46.427Z,7.67
2019-04-27T15:13:18.773Z,4.53
2019-04-27T15:15:49.967Z,8.00
2019-04-27T15:18:29.646Z,6.63
2019-04-27T15:21:04.555Z,5.47
2019-04-27T15:23:35.307Z,6.17
2019-04-27T15:26:08.217Z,5.60
2019-04-27T15:28:49.392Z,6.07
2019-04-27T15:31:35.588Z,5.03
2019-04-27T15:34:27.629Z,4.33
2019-04-27T15:37:05.384Z,4.63
2019-04-27T15:39:58.297Z,8.13
2019-04-27T15:42:31.972Z,7.03
2019-04-27T15:45:03.836Z,4.20
2019-04-27T15:47:38.322Z,5.93
2019-04-27T15:50:23.472Z,9.60
2019-04-27T15:53:02.813Z,6.03
2019-04-27T15:55:36.984Z,6.07
2019-04-27T15:58:09.757Z,10.17
2019-04-27T16:00:56.208Z,6.63
2019-04-27T16:03:27.208Z,8.80
2019-04-27T16:05:55.648Z,9.83
2019-04-27T16:08:28.664Z,7.10
2019-04-27T16:11:02.500Z,7.80
2019-04-27T16:13:38.251Z,5.77
2019-04-27T16:16:11.097Z,11.37
2019-04-27T16:18:41.878Z,6.90
2019-04-27T16:21:12.575Z,10.33
2019-04-27T16:23:48.136Z,9.63
2019-04-27T16:26:20.818Z,14.47
2019-04-27T16:28:53.362Z,12.07
2019-04-27T16:31:31.490Z,11.87
2019-04-27T16:34:01.603Z,14.43
2019-04-27T16:36:32.067Z,14.30
2019-04-27T16:39:08.384Z,8.50
2019-04-27T16:41:41.973Z,8.93
2019-04-27T16:44:11.931Z,8.77
2019-04-27T16:46:43.269Z,9.07
2019-04-27T16:49:18.799Z,11.23
2019-04-27T16:51:53.325Z,7.77
2019-04-27T16:54:32.509Z,12.33
2019-04-27T16:57:21.140Z,12.77
2019-04-27T16:59:57.525Z,8.63
2019-04-27T17:02:45.784Z,8.17
2019-04-27T17:05:17.870Z,10.83
2019-04-27T17:07:55.558Z,22.93
2019-04-27T17:10:30.863Z,16.27
2019-04-27T17:13:01.561Z,8.03
2019-04-27T17:15:53.626Z,8.87
2019-04-27T17:18:25.528Z,9.67
2019-04-27T17:21:02.777Z,11.17
2019-04-27T17:23:35.016Z,8.30
2019-04-27T17:26:20.627Z,7.90
2019-04-27T17:28:48.548Z,9.93
2019-04-27T17:31:21.689Z,10.50
2019-04-27T17:33:58.643Z,9.60
2019-04-27T17:36:34.344Z,10.90
2019-04-27T17:39:08.529Z,10.13
2019-04-27T17:41:49.173Z,12.07
2019-04-27T17:44:19.303Z,8.90
2019-04-27T17:46:51.152Z,10.30
2019-04-27T17:49:21.147Z,13.03
2019-04-27T17:51:58.529Z,11.17
2019-04-27T17:54:47.468Z,16.00
2019-04-27T17:57:17.899Z,14.67
2019-04-27T17:59:58.371Z,13.70
2019-04-27T18:02:23.322Z,15.80
2019-04-27T18:04:54.048Z,19.90
2019-04-27T18:07:27.735Z,14.10
2019-04-27T18:10:22.813Z,13.67
2019-04-27T18:12:48.586Z,18.57
2019-04-27T18:15:20.413Z,14.10
2019-04-27T18:17:54.858Z,18.87
2019-04-27T18:20:28.937Z,18.07
2019-04-27T18:23:02.386Z,21.97
2019-04-27T18:25:35.620Z,17.83
2019-04-27T18:28:31.838Z,13.37
2019-04-27T18:31:04.183Z,15.30
2019-04-27T18:33:37.248Z,14.90
2019-04-27T18:36:14.232Z,11.53
2019-04-27T18:38:45.060Z,11.27
2019-04-27T18:41:20.191Z,14.37
2019-04-27T18:43:55.199Z,15.23
2019-04-27T18:46:25.138Z,11.53
2019-04-27T18:49:00.704Z,14.03
2019-04-27T18:51:52.630Z,13.47
2019-04-27T18:54:23.651Z,13.93
2019-04-27T18:57:04.122Z,16.30
2019-04-27T18:59:31.902Z,9.83
2019-04-27T19:02:12.038Z,13.30
2019-04-27T19:04:50.199Z,12.77
2019-04-27T19:07:20.891Z,12.53
2019-04-27T19:09:59.612Z,12.33
2019-04-27T19:12:30.312Z,13.20
2019-04-27T19:15:01.908Z,12.13
2019-04-27T19:17:33.596Z,13.00
2019-04-27T19:20:04.686Z,19.03
2019-04-27T19:22:41.409Z,8.70
2019-04-27T19:25:33.827Z,10.80
2019-04-27T19:28:18.635Z,15.10
2019-04-27T19:31:09.349Z,13.37
2019-04-27T19:33:40.970Z,11.70
2019-04-27T19:36:15.228Z,16.67
2019-04-27T19:38:58.369Z,8.57
2019-04-27T19:41:38.182Z,12.17
2019-04-27T19:44:10.235Z,12.17
2019-04-27T19:46:41.005Z,10.07
2019-04-27T19:49:13.009Z,8.27
2019-04-27T19:51:54.075Z,10.93
2019-04-27T19:54:30.284Z,13.50
2019-04-27T19:57:01.079Z,12.70
2019-04-27T19:59:40.638Z,14.90
2019-04-27T20:02:20.618Z,12.67
2019-04-27T20:04:55.106Z,14.40
2019-04-27T20:07:28.614Z,16.80
2019-04-27T20:10:02.131Z,13.60
2019-04-27T20:12:38.763Z,15.40
2019-04-27T20:15:09.708Z,12.33
2019-04-27T20:17:42.520Z,17.17
2019-04-27T20:20:16.400Z,12.50
2019-04-27T20:22:50.810Z,13.17
2019-04-27T20:25:22.170Z,13.20
2019-04-27T20:28:00.898Z,17.63
2019-04-27T20:30:32.032Z,16.80
2019-04-27T20:33:04.994Z,13.30
2019-04-27T20:35:37.929Z,15.10
2019-04-27T20:38:12.955Z,15.00
2019-04-27T20:40:43.721Z,15.53
2019-04-27T20:43:17.479Z,12.87
2019-04-27T20:46:11.859Z,15.47
2019-04-27T20:48:43.701Z,16.40
2019-04-27T20:51:43.857Z,16.43
2019-04-27T20:54:15.016Z,15.63
2019-04-27T20:56:45.627Z,16.33
2019-04-27T20:59:18.481Z,15.67
2019-04-27T21:01:51.177Z,17.83
2019-04-27T21:04:36.986Z,13.67
2019-04-27T21:07:10.961Z,18.20
2019-04-27T21:09:41.822Z,14.57
2019-04-27T21:12:18.104Z,13.83
2019-04-27T21:14:48.849Z,18.37
2019-04-27T21:17:19.550Z,14.70
2019-04-27T21:19:51.544Z,15.77
2019-04-27T21:22:26.530Z,14.67
2019-04-27T21:24:58.155Z,16.83
2019-04-27T21:27:31.802Z,12.43
2019-04-27T21:30:06.305Z,18.37
2019-04-27T21:32:37.986Z,13.13
2019-04-27T21:35:10.924Z,19.97
2019-04-27T21:37:41.617Z,19.40
2019-04-27T21:40:21.390Z,20.03
2019-04-27T21:42:56.759Z,14.23
2019-04-27T21:45:27.566Z,19.03
2019-04-27T21:48:00.897Z,12.90
2019-04-27T21:50:35.834Z,14.97
2019-04-27T21:53:08.221Z,17.77
2019-04-27T21:55:39.686Z,16.77
2019-04-27T21:58:11.621Z,11.93
2019-04-27T22:01:03.604Z,16.53
2019-04-27T22:03:36.126Z,14.37
2019-04-27T22:06:08.489Z,20.83
2019-04-27T22:08:55.744Z,15.40
2019-04-27T22:11:32.222Z,15.87
2019-04-27T22:14:05.728Z,13.47
2019-04-27T22:16:41.614Z,22.43
2019-04-27T22:19:12.637Z,17.80
2019-04-27T22:21:52.722Z,16.57
2019-04-27T22:24:42.843Z,15.83
2019-04-27T22:27:14.150Z,15.70
2019-04-27T22:29:52.738Z,14.13
2019-04-27T22:32:23.281Z,16.53
2019-04-27T22:34:54.454Z,16.50
2019-04-27T22:37:35.099Z,13.53
2019-04-27T22:40:11.511Z,15.20
2019-04-27T22:42:57.309Z,19.73
2019-04-27T22:45:29.771Z,16.30
2019-04-27T22:48:01.279Z,14.80
2019-04-27T22:50:31.941Z,16.07
2019-04-27T22:53:10.491Z,17.57
2019-04-27T22:56:11.177Z,17.40
2019-04-27T22:58:58.577Z,13.77
2019-04-27T23:01:30.123Z,14.77
2019-04-27T23:04:03.326Z,19.07
2019-04-27T23:06:36.247Z,13.10
2019-04-27T23:09:14.919Z,16.80
2019-04-27T23:11:47.015Z,16.27
2019-04-27T23:14:31.292Z,13.73
2019-04-27T23:17:15.423Z,14.73
2019-04-27T23:19:48.556Z,18.23
2019-04-27T23:22:24.448Z,14.47
2019-04-27T23:24:55.197Z,19.77
2019-04-27T23:27:26.201Z,16.63
2019-04-27T23:29:56.807Z,20.47
2019-04-27T23:32:36.394Z,14.07
2019-04-27T23:35:07.699Z,17.90
2019-04-27T23:37:38.464Z,14.67
2019-04-27T23:40:11.175Z,14.67
2019-04-27T23:43:01.713Z,18.67
2019-04-27T23:45:32.487Z,16.20
2019-04-27T23:48:25.036Z,15.03
2019-04-27T23:51:08.163Z,17.03
2019-04-27T23:53:41.683Z,14.00
2019-04-27T23:56:12.280Z,16.13
2019-04-27T23:58:42.978Z,12.70
